Time;durP1;ratioP1;P1;durP2;ratioP2;P2;SDS_P1;SDS_P2;PMS_P1;PMS_P2;Temp;Humidity;BMP_temperature;BMP_pressure;BME280_temperature;BME280_humidity;BME280_pressure;Samples;Min_cycle;Max_cycle;Signal;HPM_P1;HPM_P2
2023/12/25 00:01:46;;;;;;;17.40;6.70;;;;;;;10.18;100.00;100434.53;5097462;28;20020;-86
2023/12/25 00:04:11;;;;;;;18.33;7.25;;;;;;;10.21;100.00;100446.81;5115261;28;20070;-86
2023/12/25 00:06:39;;;;;;;14.00;5.57;;;;;;;10.19;100.00;100456.00;5098253;28;20341;-86
2023/12/25 00:09:05;;;;;;;11.52;5.57;;;;;;;10.18;100.00;100439.94;5081301;28;20020;-87
2023/12/25 00:11:30;;;;;;;9.87;4.57;;;;;;;10.23;100.00;100433.84;5097718;28;20119;-86
2023/12/25 00:13:57;;;;;;;12.10;5.33;;;;;;;10.14;100.00;100439.59;5080471;28;20032;-86
2023/12/25 00:16:26;;;;;;;10.55;5.25;;;;;;;10.16;100.00;100447.50;5097219;28;20027;-86
2023/12/25 00:18:51;;;;;;;11.45;5.65;;;;;;;10.17;100.00;100451.84;5080664;28;20032;-87
2023/12/25 00:21:16;;;;;;;10.73;4.50;;;;;;;10.15;100.00;100426.84;5115116;28;20065;-87
2023/12/25 00:23:42;;;;;;;8.97;4.00;;;;;;;10.13;100.00;100407.28;5097059;28;20035;-86
2023/12/25 00:26:08;;;;;;;14.23;5.27;;;;;;;10.12;100.00;100392.06;5079838;28;20032;-87
2023/12/25 00:28:33;;;;;;;11.68;4.28;;;;;;;10.14;100.00;100417.03;5097060;28;20031;-87
2023/12/25 00:30:58;;;;;;;12.93;5.33;;;;;;;10.10;100.00;100429.41;5096953;28;20024;-87
2023/12/25 00:33:24;;;;;;;12.63;4.80;;;;;;;10.11;100.00;100420.19;5115280;28;20409;-87
2023/12/25 00:35:49;;;;;;;14.23;5.80;;;;;;;10.11;100.00;100420.19;5096913;28;20475;-87
2023/12/25 00:38:14;;;;;;;11.82;4.32;;;;;;;10.11;100.00;100412.06;5097172;28;20028;-87
2023/12/25 00:40:40;;;;;;;17.83;5.87;;;;;;;10.11;100.00;100415.63;5080416;28;20036;-87
2023/12/25 00:43:05;;;;;;;16.23;6.40;;;;;;;10.13;100.00;100432.50;5063300;28;20054;-87
2023/12/25 00:45:31;;;;;;;14.93;6.13;;;;;;;10.16;100.00;100425.81;5096685;28;20387;-87
2023/12/25 00:47:56;;;;;;;20.33;7.00;;;;;;;10.15;100.00;100430.38;5110902;28;20114;-87
2023/12/25 00:50:21;;;;;;;19.05;6.63;;;;;;;10.08;100.00;100435.03;5112973;28;20031;-87
2023/12/25 00:52:47;;;;;;;19.92;6.85;;;;;;;10.11;100.00;100433.75;5115368;28;20059;-87
2023/12/25 00:55:12;;;;;;;15.57;6.57;;;;;;;10.15;100.00;100445.81;5096591;28;20061;-87
2023/12/25 00:57:38;;;;;;;17.20;6.70;;;;;;;10.09;100.00;100442.13;5114237;28;20459;-87
2023/12/25 01:00:03;;;;;;;18.73;6.73;;;;;;;10.11;100.00;100447.31;5096191;28;20268;-86
2023/12/25 01:02:29;;;;;;;18.23;7.18;;;;;;;10.15;100.00;100446.63;5113224;28;20488;-86
2023/12/25 01:04:55;;;;;;;18.43;7.27;;;;;;;10.15;100.00;100451.25;5113028;28;20055;-86
2023/12/25 01:07:20;;;;;;;14.10;5.32;;;;;;;10.16;100.00;100452.91;5113643;28;20036;-87
2023/12/25 01:09:45;;;;;;;15.93;6.73;;;;;;;10.13;100.00;100450.66;5113452;28;20031;-87
2023/12/25 01:12:11;;;;;;;18.57;6.67;;;;;;;10.16;100.00;100469.19;5112904;28;20038;-87
2023/12/25 01:14:37;;;;;;;20.40;7.77;;;;;;;10.13;100.00;100453.34;5096187;28;20082;-86
2023/12/25 01:17:05;;;;;;;19.13;6.97;;;;;;;10.14;100.00;100468.56;5113105;28;20031;-87
2023/12/25 01:19:30;;;;;;;17.42;7.00;;;;;;;10.11;100.00;100453.59;5112844;28;20031;-86
2023/12/25 01:21:56;;;;;;;18.07;7.30;;;;;;;10.13;100.00;100459.59;5113521;28;20046;-86
2023/12/25 01:24:21;;;;;;;17.93;6.47;;;;;;;10.12;100.00;100462.53;5096089;28;20104;-87
2023/12/25 01:26:49;;;;;;;18.33;7.53;;;;;;;10.12;100.00;100465.25;5096188;28;20032;-88
2023/12/25 01:29:14;;;;;;;18.55;7.72;;;;;;;10.16;100.00;100453.72;5114036;28;20038;-87
2023/12/25 01:31:40;;;;;;;16.60;6.60;;;;;;;10.15;100.00;100456.66;5112947;28;20028;-87
2023/12/25 01:34:06;;;;;;;17.77;7.47;;;;;;;10.15;100.00;100478.34;5113425;28;20059;-86
2023/12/25 01:36:31;;;;;;;16.43;6.47;;;;;;;10.15;100.00;100462.09;5114245;28;20500;-87
2023/12/25 01:38:56;;;;;;;19.77;7.32;;;;;;;10.18;100.00;100467.06;5111894;28;20154;-86
2023/12/25 01:41:27;;;;;;;17.87;7.33;;;;;;;10.18;100.00;100469.78;5113262;28;20027;-87
2023/12/25 01:43:54;;;;;;;21.05;7.93;;;;;;;10.18;100.00;100464.34;5096877;28;20028;-87
2023/12/25 01:46:20;;;;;;;24.48;8.20;;;;;;;10.15;100.00;100456.66;5096724;28;20041;-87
2023/12/25 01:48:50;;;;;;;23.42;8.05;;;;;;;10.18;100.00;100445.38;5095745;28;20094;-87
2023/12/25 01:51:17;;;;;;;26.92;8.82;;;;;;;10.20;100.00;100448.69;5114070;28;20031;-87
2023/12/25 01:53:42;;;;;;;28.60;9.95;;;;;;;10.16;100.00;100450.19;5078611;28;20035;-87
2023/12/25 01:56:08;;;;;;;30.10;9.45;;;;;;;10.18;100.00;100475.19;5112996;28;20024;-87
2023/12/25 01:58:33;;;;;;;23.30;8.47;;;;;;;10.18;100.00;100470.59;5095843;28;20066;-87
2023/12/25 02:00:58;;;;;;;28.33;8.67;;;;;;;10.18;100.00;100467.06;5115129;28;20034;-86
2023/12/25 02:03:24;;;;;;;28.57;8.97;;;;;;;10.19;100.00;100477.69;5116596;28;20027;-86
2023/12/25 02:05:50;;;;;;;24.73;7.93;;;;;;;10.15;100.00;100454.78;5116297;28;20044;-86
2023/12/25 02:08:17;;;;;;;26.13;8.13;;;;;;;10.16;100.00;100471.88;5116465;28;20272;-86
2023/12/25 02:10:42;;;;;;;22.52;7.07;;;;;;;10.12;100.00;100482.31;5099591;28;20042;-86
2023/12/25 02:13:07;;;;;;;28.30;8.03;;;;;;;10.16;100.00;100480.84;5117403;28;20028;-86
2023/12/25 02:15:33;;;;;;;26.05;10.18;;;;;;;10.17;100.00;100484.38;5117408;28;20032;-87
2023/12/25 02:18:00;;;;;;;32.72;10.95;;;;;;;10.13;100.00;100494.84;5082945;28;20028;-86
2023/12/25 02:20:26;;;;;;;31.85;9.88;;;;;;;10.18;100.00;100499.59;5116864;28;20032;-87
2023/12/25 02:22:52;;;;;;;29.97;9.73;;;;;;;10.17;100.00;100506.91;5099213;28;20133;-87
2023/12/25 02:25:34;;;;;;;34.60;10.90;;;;;;;10.16;100.00;100490.88;5117679;28;20028;-86
2023/12/25 02:28:00;;;;;;;31.15;9.75;;;;;;;10.17;100.00;100496.06;5117605;28;20059;-86
2023/12/25 02:30:26;;;;;;;30.02;9.80;;;;;;;10.15;100.00;100481.88;5115983;28;20600;-86
2023/12/25 02:32:52;;;;;;;26.67;8.77;;;;;;;10.15;100.00;100489.19;5117466;28;20046;-86
2023/12/25 02:35:17;;;;;;;26.67;9.85;;;;;;;10.13;100.00;100486.72;5099252;28;20485;-86
2023/12/25 02:37:43;;;;;;;22.70;8.90;;;;;;;10.15;100.00;100487.31;5099095;28;20036;-86
2023/12/25 02:40:09;;;;;;;28.03;9.33;;;;;;;10.16;100.00;100488.97;5116037;28;20158;-87
2023/12/25 02:42:34;;;;;;;29.35;10.35;;;;;;;10.13;100.00;100478.56;5117668;28;20027;-86
2023/12/25 02:45:00;;;;;;;28.37;9.40;;;;;;;10.16;100.00;100485.44;5117299;28;20019;-87
2023/12/25 02:47:26;;;;;;;27.27;9.67;;;;;;;10.20;100.00;100492.06;5098699;28;20042;-88
2023/12/25 02:49:52;;;;;;;48.78;10.25;;;;;;;10.17;100.00;100501.50;5115808;28;20278;-88
2023/12/25 02:52:18;;;;;;;25.95;8.65;;;;;;;10.24;100.00;100504.13;5117239;28;20085;-87
2023/12/25 02:54:43;;;;;;;23.30;8.87;;;;;;;10.23;100.00;100517.91;5117799;28;20024;-87
2023/12/25 02:57:09;;;;;;;31.48;10.15;;;;;;;10.17;100.00;100496.06;5115744;28;20076;-87
2023/12/25 02:59:37;;;;;;;28.90;9.27;;;;;;;10.17;100.00;100503.34;5115433;28;20023;-88
2023/12/25 03:02:04;;;;;;;25.55;9.27;;;;;;;10.25;100.00;100515.81;5098703;28;20525;-87
2023/12/25 03:04:29;;;;;;;31.60;9.03;;;;;;;10.20;100.00;100516.47;5115681;28;20169;-87
2023/12/25 03:06:55;;;;;;;21.42;8.00;;;;;;;10.22;100.00;100506.25;5117209;28;20059;-87
2023/12/25 03:09:20;;;;;;;24.17;8.80;;;;;;;10.22;100.00;100517.09;5115281;28;20039;-87
2023/12/25 03:11:49;;;;;;;23.27;8.23;;;;;;;10.25;100.00;100535.63;5097919;28;20080;-87
2023/12/25 03:14:14;;;;;;;28.20;8.95;;;;;;;10.26;100.00;100517.47;5115338;28;20356;-87
2023/12/25 03:16:40;;;;;;;25.30;9.50;;;;;;;10.29;100.00;100519.72;5116675;28;20035;-87
2023/12/25 03:19:05;;;;;;;23.02;9.00;;;;;;;10.25;100.00;100499.56;5115288;28;20467;-87
2023/12/25 03:21:31;;;;;;;23.60;8.13;;;;;;;10.25;100.00;100497.66;5098073;28;20122;-87
2023/12/25 03:23:56;;;;;;;25.93;9.10;;;;;;;10.30;100.00;100505.94;5116328;28;20033;-88
2023/12/25 03:26:21;;;;;;;21.53;7.13;;;;;;;10.31;100.00;100512.22;5115245;28;20024;-87
2023/12/25 03:28:47;;;;;;;23.57;7.87;;;;;;;10.31;100.00;100499.47;5098244;28;20368;-87
2023/12/25 03:31:12;;;;;;;26.38;8.10;;;;;;;10.31;100.00;100496.78;5114883;28;20292;-87
2023/12/25 03:33:41;;;;;;;18.20;7.43;;;;;;;10.38;100.00;100523.88;5116611;28;20035;-87
2023/12/25 03:36:07;;;;;;;22.27;8.35;;;;;;;10.37;100.00;100513.25;5114925;28;20031;-88
2023/12/25 03:38:33;;;;;;;17.17;6.90;;;;;;;10.37;100.00;100522.22;5116304;28;20034;-88
2023/12/25 03:41:03;;;;;;;22.87;8.13;;;;;;;10.35;100.00;100499.91;5116737;28;20032;-88
2023/12/25 03:43:31;;;;;;;23.08;8.95;;;;;;;10.30;100.00;100516.78;5116157;28;20047;-88
2023/12/25 03:45:57;;;;;;;23.77;7.60;;;;;;;10.31;100.00;100526.59;5114904;28;20076;-87
2023/12/25 03:48:23;;;;;;;20.10;7.10;;;;;;;10.32;100.00;100522.03;5115775;28;20031;-87
2023/12/25 03:50:48;;;;;;;23.83;7.47;;;;;;;10.32;100.00;100522.03;5115027;28;20055;-87
2023/12/25 03:53:14;;;;;;;22.67;7.43;;;;;;;10.28;100.00;100523.50;5114294;28;20071;-87
2023/12/25 03:55:39;;;;;;;23.80;7.70;;;;;;;10.25;100.00;100527.50;5080917;28;20040;-86
2023/12/25 03:58:05;;;;;;;20.13;7.13;;;;;;;10.28;100.00;100553.34;5114740;28;20361;-87
2023/12/25 04:00:33;;;;;;;22.15;7.30;;;;;;;10.27;100.00;100547.06;5114651;28;20078;-87
2023/12/25 04:02:58;;;;;;;20.47;7.67;;;;;;;10.22;100.00;100529.81;5114876;28;20024;-87
2023/12/25 04:05:24;;;;;;;15.55;6.10;;;;;;;10.28;100.00;100537.06;5115650;28;20054;-87
2023/12/25 04:07:50;;;;;;;17.20;5.93;;;;;;;10.22;100.00;100530.66;5114255;28;20167;-87
2023/12/25 04:10:16;;;;;;;18.67;5.75;;;;;;;10.21;100.00;100531.69;5114340;28;20028;-87
2023/12/25 04:12:44;;;;;;;17.67;5.50;;;;;;;10.20;100.00;100530.00;5097355;28;20039;-87
2023/12/25 04:15:09;;;;;;;18.13;5.40;;;;;;;10.24;100.00;100533.13;5114106;28;20019;-87
2023/12/25 04:17:35;;;;;;;14.15;5.57;;;;;;;10.18;100.00;100530.25;5114128;28;20463;-86
2023/12/25 04:20:00;;;;;;;14.77;5.70;;;;;;;10.23;100.00;100531.47;5114482;28;20472;-87
2023/12/25 04:22:28;;;;;;;18.83;5.50;;;;;;;10.19;100.00;100526.50;5114083;28;20062;-87
2023/12/25 04:24:54;;;;;;;12.95;5.53;;;;;;;10.18;100.00;100513.97;5113475;28;20035;-87
2023/12/25 04:27:19;;;;;;;12.37;4.83;;;;;;;10.17;100.00;100511.47;5114029;28;20036;-86
2023/12/25 04:29:45;;;;;;;12.88;6.10;;;;;;;10.17;100.00;100517.75;5113916;28;20479;-87
2023/12/25 04:32:10;;;;;;;12.13;4.80;;;;;;;10.19;100.00;100515.63;5115299;28;20028;-87
2023/12/25 04:34:36;;;;;;;11.73;4.68;;;;;;;10.18;100.00;100507.72;5115267;28;20059;-87
2023/12/25 04:37:02;;;;;;;11.97;5.40;;;;;;;10.19;100.00;100529.19;5114391;28;20027;-86
2023/12/25 04:39:27;;;;;;;12.40;4.55;;;;;;;10.18;100.00;100510.44;5114997;28;20024;-87
2023/12/25 04:41:53;;;;;;;11.30;4.80;;;;;;;10.14;100.00;100499.22;5114834;28;20035;-87
2023/12/25 04:44:18;;;;;;;8.80;4.17;;;;;;;10.16;100.00;100509.84;5080297;28;20035;-87
2023/12/25 04:46:43;;;;;;;8.10;3.57;;;;;;;10.13;100.00;100507.56;5115313;28;20031;-87
2023/12/25 04:49:11;;;;;;;9.83;5.07;;;;;;;10.15;100.00;100522.53;5113742;28;20020;-87
2023/12/25 04:51:36;;;;;;;10.90;4.15;;;;;;;10.16;100.00;100515.25;5113555;28;20038;-87
2023/12/25 04:54:02;;;;;;;8.17;3.27;;;;;;;10.14;100.00;100501.09;5113606;28;20031;-88
2023/12/25 04:56:28;;;;;;;9.10;3.95;;;;;;;10.14;100.00;100485.66;5113304;28;20653;-87
2023/12/25 04:58:53;;;;;;;15.03;4.90;;;;;;;10.15;100.00;100495.44;5113334;28;20486;-87
2023/12/25 05:01:18;;;;;;;12.23;4.80;;;;;;;10.12;100.00;100467.97;5114376;28;20040;-89
2023/12/25 05:03:44;;;;;;;12.38;4.18;;;;;;;10.11;100.00;100477.97;5112980;28;20277;-87
2023/12/25 05:06:09;;;;;;;11.57;4.33;;;;;;;10.10;100.00;100487.16;5113277;28;20586;-88
2023/12/25 05:08:36;;;;;;;14.13;4.40;;;;;;;10.11;100.00;100488.81;5113368;28;20024;-87
2023/12/25 05:11:01;;;;;;;12.25;4.10;;;;;;;10.10;100.00;100480.91;5113800;28;20035;-87
2023/12/25 05:13:26;;;;;;;13.47;4.43;;;;;;;10.06;100.00;100482.41;5096073;28;20057;-87
2023/12/25 05:15:52;;;;;;;11.00;4.10;;;;;;;10.09;100.00;100487.38;5113040;28;20028;-87
2023/12/25 05:18:17;;;;;;;13.55;4.03;;;;;;;10.11;100.00;100496.09;5113090;28;20399;-87
2023/12/25 05:20:43;;;;;;;12.90;3.30;;;;;;;10.07;100.00;100484.03;5113075;28;20103;-87
2023/12/25 05:23:08;;;;;;;10.87;4.13;;;;;;;10.06;100.00;100495.94;5113051;28;20035;-87
2023/12/25 05:25:34;;;;;;;10.10;3.30;;;;;;;10.03;100.00;100488.25;5096081;28;20123;-87
2023/12/25 05:27:59;;;;;;;11.83;2.90;;;;;;;10.06;100.00;100487.81;5114349;28;20058;-87
2023/12/25 05:30:24;;;;;;;11.30;3.03;;;;;;;10.07;100.00;100476.75;5113519;28;20272;-87
2023/12/25 05:32:50;;;;;;;13.97;3.77;;;;;;;10.07;100.00;100486.75;5129921;27;20084;-86
2023/12/25 05:35:15;;;;;;;9.93;3.33;;;;;;;10.08;100.00;100478.41;5113312;28;20035;-87
2023/12/25 05:37:43;;;;;;;11.95;3.42;;;;;;;10.07;100.00;100468.63;5114176;28;20035;-87
2023/12/25 05:40:10;;;;;;;11.73;3.23;;;;;;;10.07;100.00;100471.34;5112802;28;20036;-88
2023/12/25 05:42:35;;;;;;;9.98;3.50;;;;;;;10.06;100.00;100488.63;5112607;28;20435;-87
2023/12/25 05:45:01;;;;;;;8.10;2.90;;;;;;;10.08;100.00;100499.25;5112830;28;20126;-87
2023/12/25 05:47:26;;;;;;;7.50;2.95;;;;;;;10.17;100.00;100487.09;5113893;28;20272;-87
2023/12/25 05:49:53;;;;;;;10.23;3.17;;;;;;;10.11;100.00;100483.41;5096115;28;20088;-86
2023/12/25 05:52:18;;;;;;;10.30;3.60;;;;;;;10.09;100.00;100480.06;5114630;28;20024;-87
2023/12/25 05:54:44;;;;;;;9.60;3.70;;;;;;;10.14;100.00;100488.38;5112763;28;20024;-88
2023/12/25 05:57:09;;;;;;;10.67;3.90;;;;;;;10.12;100.00;100462.53;5114048;28;20413;-88
2023/12/25 05:59:40;;;;;;;9.65;3.47;;;;;;;10.10;100.00;100479.03;5112505;28;20031;-88
2023/12/25 06:02:05;;;;;;;12.38;3.78;;;;;;;10.12;100.00;100504.00;5114111;28;20042;-87
2023/12/25 06:04:31;;;;;;;9.35;3.40;;;;;;;10.11;100.00;100502.38;5113655;28;20031;-88
2023/12/25 06:06:56;;;;;;;8.98;3.25;;;;;;;10.13;100.00;100486.72;5096078;28;20047;-88
2023/12/25 06:09:23;;;;;;;9.90;3.53;;;;;;;10.14;100.00;100498.38;5112425;28;20110;-88
2023/12/25 06:11:48;;;;;;;9.95;3.63;;;;;;;10.10;100.00;100473.59;5078967;28;20096;-87
2023/12/25 06:14:14;;;;;;;11.23;3.67;;;;;;;10.15;100.00;100490.03;5112480;28;20464;-87
2023/12/25 06:16:39;;;;;;;11.07;3.93;;;;;;;10.14;100.00;100518.19;5095065;28;20031;-87
2023/12/25 06:19:04;;;;;;;10.25;4.00;;;;;;;10.16;100.00;100515.25;5112451;28;20028;-87
2023/12/25 06:21:30;;;;;;;11.17;4.30;;;;;;;10.11;100.00;100477.97;5113872;28;20092;-87
2023/12/25 06:23:56;;;;;;;9.00;3.63;;;;;;;10.12;100.00;100492.34;5078518;28;20045;-87
2023/12/25 06:26:22;;;;;;;10.50;3.70;;;;;;;10.12;100.00;100484.22;5095494;28;20058;-87
2023/12/25 06:28:48;;;;;;;9.77;3.72;;;;;;;10.11;100.00;100487.97;5112300;28;20217;-87
2023/12/25 06:31:13;;;;;;;7.90;3.53;;;;;;;10.17;100.00;100503.34;5095445;28;20492;-87
2023/12/25 06:33:39;;;;;;;11.80;4.20;;;;;;;10.17;100.00;100492.50;5112445;28;20027;-87
2023/12/25 06:36:08;;;;;;;12.45;4.25;;;;;;;10.13;100.00;100488.59;5112430;28;20152;-87
2023/12/25 06:38:33;;;;;;;11.63;4.20;;;;;;;10.16;100.00;100494.41;5113024;28;20518;-87
2023/12/25 06:41:00;;;;;;;9.02;4.15;;;;;;;10.16;100.00;100493.56;5095149;28;20107;-87
2023/12/25 06:43:31;;;;;;;10.48;4.00;;;;;;;10.14;100.00;100490.25;5113342;28;20467;-87
2023/12/25 06:45:56;;;;;;;12.00;4.43;;;;;;;10.14;100.00;100496.50;5112642;28;20499;-87
2023/12/25 06:48:22;;;;;;;11.18;4.40;;;;;;;10.14;100.00;100490.25;5114289;28;20054;-87
2023/12/25 06:50:48;;;;;;;10.03;4.60;;;;;;;10.16;100.00;100499.00;5116015;28;20024;-87
2023/12/25 06:53:14;;;;;;;10.88;4.60;;;;;;;10.21;100.00;100501.03;5115805;28;20035;-87
2023/12/25 06:55:39;;;;;;;12.27;5.43;;;;;;;10.15;100.00;100487.31;5116569;28;20027;-87
2023/12/25 06:58:08;;;;;;;13.83;5.57;;;;;;;10.17;100.00;100489.78;5099419;28;20031;-87
2023/12/25 07:00:34;;;;;;;14.80;6.38;;;;;;;10.16;100.00;100490.88;5115848;28;20028;-87
2023/12/25 07:02:59;;;;;;;16.75;6.07;;;;;;;10.16;100.00;100497.09;5115823;28;20031;-86
2023/12/25 07:05:25;;;;;;;17.33;7.23;;;;;;;10.20;100.00;100481.22;5115338;28;20047;-87
2023/12/25 07:07:50;;;;;;;14.50;6.67;;;;;;;10.22;100.00;100483.72;5116651;28;20126;-87
2023/12/25 07:10:16;;;;;;;17.10;6.45;;;;;;;10.26;100.00;100483.06;5116582;28;20340;-88
2023/12/25 07:12:42;;;;;;;17.87;7.73;;;;;;;10.29;100.00;100508.88;5098615;28;20065;-86
2023/12/25 07:15:07;;;;;;;19.92;8.05;;;;;;;10.23;100.00;100531.47;5098193;28;20027;-87
2023/12/25 07:17:33;;;;;;;18.77;8.10;;;;;;;10.29;100.00;100519.72;5115352;28;20016;-86
2023/12/25 07:19:58;;;;;;;18.02;7.97;;;;;;;10.28;100.00;100521.63;5115063;28;20122;-90
2023/12/25 07:22:24;;;;;;;16.70;7.50;;;;;;;10.34;100.00;100518.06;5115615;28;20031;-85
2023/12/25 07:24:50;;;;;;;21.20;8.15;;;;;;;10.26;100.00;100509.31;5115007;28;20023;-84
2023/12/25 07:27:16;;;;;;;16.83;6.90;;;;;;;10.24;100.00;100520.41;5097780;28;20031;-85
2023/12/25 07:29:41;;;;;;;21.30;8.88;;;;;;;10.27;100.00;100535.41;5114867;28;20032;-85
2023/12/25 07:32:07;;;;;;;20.77;8.48;;;;;;;10.25;100.00;100532.09;5116422;28;20034;-84
2023/12/25 07:34:33;;;;;;;18.50;8.23;;;;;;;10.26;100.00;100536.44;5116776;28;20073;-85
2023/12/25 07:37:02;;;;;;;19.23;8.55;;;;;;;10.25;100.00;100532.91;5097896;28;20055;-85
2023/12/25 07:39:27;;;;;;;17.58;8.25;;;;;;;10.29;100.00;100536.84;5114730;28;20035;-84
2023/12/25 07:41:55;;;;;;;18.10;7.93;;;;;;;10.28;100.00;100535.19;5081070;28;20032;-85
2023/12/25 07:44:21;;;;;;;15.27;6.53;;;;;;;10.29;100.00;100539.56;5098236;28;20061;-85
2023/12/25 07:46:46;;;;;;;19.80;7.22;;;;;;;10.30;100.00;100554.75;5097903;28;20020;-85
2023/12/25 07:49:12;;;;;;;17.13;8.20;;;;;;;10.31;100.00;100551.00;5115090;28;20023;-84
2023/12/25 07:51:37;;;;;;;18.10;6.93;;;;;;;10.26;100.00;100547.28;5114854;28;20027;-84
2023/12/25 07:54:03;;;;;;;18.30;6.80;;;;;;;10.26;100.00;100539.16;5097591;28;20059;-85
2023/12/25 07:56:28;;;;;;;17.30;6.87;;;;;;;10.30;100.00;100560.19;5115315;28;20024;-85
2023/12/25 07:58:53;;;;;;;17.13;7.00;;;;;;;10.28;100.00;100550.63;5114712;28;20114;-85
2023/12/25 08:01:20;;;;;;;19.27;6.87;;;;;;;10.29;100.00;100557.69;5115724;28;20476;-85
2023/12/25 08:03:45;;;;;;;17.50;6.63;;;;;;;10.29;100.00;100563.13;5115218;28;20031;-85
2023/12/25 08:06:11;;;;;;;15.57;5.80;;;;;;;10.29;100.00;100572.09;5113835;28;20051;-84
2023/12/25 08:08:37;;;;;;;14.15;5.95;;;;;;;10.29;100.00;100587.53;5116348;28;20140;-85
2023/12/25 08:11:03;;;;;;;17.30;6.75;;;;;;;10.28;100.00;100573.13;5114498;28;20043;-85
2023/12/25 08:13:28;;;;;;;14.33;6.13;;;;;;;10.28;100.00;100581.28;5114634;28;20027;-84
2023/12/25 08:15:54;;;;;;;15.00;6.63;;;;;;;10.27;100.00;100576.06;5114182;28;20070;-85
2023/12/25 08:18:19;;;;;;;15.90;6.80;;;;;;;10.28;100.00;100591.31;5114449;28;20027;-84
2023/12/25 08:20:44;;;;;;;16.37;5.87;;;;;;;10.29;100.00;100593.78;5096835;28;20024;-84
2023/12/25 08:23:10;;;;;;;15.77;6.43;;;;;;;10.28;100.00;100597.53;5113960;28;20434;-84
2023/12/25 08:25:35;;;;;;;18.43;6.50;;;;;;;10.28;100.00;100592.13;5114028;28;20032;-84
2023/12/25 08:28:01;;;;;;;15.93;6.40;;;;;;;10.30;100.00;100592.72;5114391;28;20065;-85
2023/12/25 08:30:29;;;;;;;16.97;6.40;;;;;;;10.30;100.00;100597.31;5097856;28;20028;-87
2023/12/25 08:32:57;;;;;;;14.68;5.80;;;;;;;10.26;100.00;100588.81;5114229;28;20027;-85
2023/12/25 08:35:22;;;;;;;13.57;5.70;;;;;;;10.30;100.00;100587.28;5113819;28;20517;-85
2023/12/25 08:37:48;;;;;;;13.40;5.40;;;;;;;10.26;100.00;100599.66;5114084;28;20032;-86
2023/12/25 08:40:13;;;;;;;11.33;4.83;;;;;;;10.30;100.00;100586.47;5113548;28;20032;-85
2023/12/25 08:42:39;;;;;;;12.55;5.40;;;;;;;10.32;100.00;100600.66;5096722;28;20532;-86
2023/12/25 08:45:06;;;;;;;15.23;5.70;;;;;;;10.29;100.00;100596.50;5096532;28;20148;-87
2023/12/25 08:47:37;;;;;;;15.95;5.82;;;;;;;10.31;100.00;100599.00;5115570;28;20032;-86
2023/12/25 08:50:02;;;;;;;18.65;6.50;;;;;;;10.30;100.00;100605.47;5114332;28;20499;-89
2023/12/25 08:52:28;;;;;;;17.93;7.03;;;;;;;10.29;100.00;100609.22;5113945;28;20061;-85
2023/12/25 08:54:53;;;;;;;20.40;7.97;;;;;;;10.33;100.00;100603.19;5113655;28;20417;-83
2023/12/25 08:57:21;;;;;;;17.88;7.38;;;;;;;10.33;100.00;100629.44;5113452;28;20062;-84
2023/12/25 08:59:49;;;;;;;18.02;7.55;;;;;;;10.34;100.00;100617.56;5096613;28;20123;-84
2023/12/25 09:02:16;;;;;;;19.95;7.20;;;;;;;10.35;100.00;100617.34;5097148;28;20039;-84
2023/12/25 09:04:41;;;;;;;20.17;7.35;;;;;;;10.37;100.00;100614.41;5114082;28;20059;-84
2023/12/25 09:07:09;;;;;;;21.63;8.20;;;;;;;10.38;100.00;100602.53;5096332;28;20093;-83
2023/12/25 09:09:35;;;;;;;20.98;8.73;;;;;;;10.37;100.00;100605.47;5096993;28;20035;-84
2023/12/25 09:12:00;;;;;;;19.77;8.07;;;;;;;10.39;100.00;100612.28;5112961;28;20100;-85
2023/12/25 09:14:26;;;;;;;16.80;6.80;;;;;;;10.37;100.00;100594.59;5113017;28;20039;-84
2023/12/25 09:16:53;;;;;;;18.87;8.23;;;;;;;10.34;100.00;100615.69;5113184;28;20059;-84
2023/12/25 09:19:18;;;;;;;20.08;7.82;;;;;;;10.35;100.00;100630.91;5113022;28;20023;-84
2023/12/25 09:21:44;;;;;;;22.30;8.27;;;;;;;10.37;100.00;100635.28;5114223;28;20479;-83
2023/12/25 09:24:09;;;;;;;22.60;8.23;;;;;;;10.35;100.00;100632.78;5112727;28;20042;-84
2023/12/25 09:26:35;;;;;;;22.23;8.43;;;;;;;10.34;100.00;100644.69;5113593;28;20028;-84
2023/12/25 09:29:00;;;;;;;20.92;7.47;;;;;;;10.34;100.00;100648.22;5112897;28;20027;-84
2023/12/25 09:31:26;;;;;;;13.80;5.10;;;;;;;10.37;100.00;100657.00;5113552;28;20036;-84
2023/12/25 09:33:51;;;;;;;17.75;5.97;;;;;;;10.37;100.00;100670.53;5112979;28;20028;-84
2023/12/25 09:36:17;;;;;;;19.30;5.90;;;;;;;10.38;100.00;100678.47;5113464;28;20030;-84
2023/12/25 09:38:42;;;;;;;18.53;5.70;;;;;;;10.38;100.00;100678.47;5113332;28;20028;-84
2023/12/25 09:41:11;;;;;;;18.20;6.10;;;;;;;10.41;100.00;100685.31;5112782;28;20042;-84
2023/12/25 09:43:43;;;;;;;14.98;5.45;;;;;;;10.40;100.00;100681.78;5112816;28;20023;-84
2023/12/25 09:46:12;;;;;;;14.65;5.00;;;;;;;10.37;100.00;100673.25;5112893;28;20076;-84
2023/12/25 09:48:41;;;;;;;12.10;4.65;;;;;;;10.40;100.00;100692.63;5114106;28;20569;-85
2023/12/25 09:51:09;;;;;;;16.33;5.88;;;;;;;10.42;100.00;100679.66;5112979;28;20023;-84
2023/12/25 09:53:37;;;;;;;9.77;4.20;;;;;;;10.40;100.00;100668.22;5113003;28;20455;-84
2023/12/25 09:56:06;;;;;;;14.32;5.22;;;;;;;10.40;100.00;100673.63;5114366;28;20027;-84
2023/12/25 09:58:33;;;;;;;11.88;4.30;;;;;;;10.38;100.00;100654.06;5112173;28;20028;-84
2023/12/25 10:01:00;;;;;;;10.68;4.03;;;;;;;10.39;100.00;100660.28;5112471;28;20039;-84
2023/12/25 10:03:26;;;;;;;12.73;3.92;;;;;;;10.40;100.00;100670.09;5113227;28;20047;-84
2023/12/25 10:05:52;;;;;;;11.77;4.30;;;;;;;10.41;100.00;100663.63;5118428;28;20175;-84
2023/12/25 10:08:18;;;;;;;11.30;3.78;;;;;;;10.42;100.00;100673.41;5116109;28;20065;-83
2023/12/25 10:10:45;;;;;;;12.70;4.40;;;;;;;10.42;100.00;100674.25;5134790;28;20514;-84
2023/12/25 10:13:11;;;;;;;10.27;3.60;;;;;;;10.40;100.00;100672.81;5099953;28;20069;-84
2023/12/25 10:15:36;;;;;;;4.20;1.60;;;;;;;10.20;100.00;100684.56;5115801;28;20117;-84
2023/12/25 10:18:04;;;;;;;6.20;1.27;;;;;;;9.90;100.00;100677.00;5116277;28;20099;-84
2023/12/25 10:20:29;;;;;;;2.50;1.15;;;;;;;9.72;100.00;100677.69;5116338;28;20034;-84
2023/12/25 10:22:56;;;;;;;5.63;1.20;;;;;;;9.61;100.00;100690.03;5101052;27;20390;-84
2023/12/25 10:25:27;;;;;;;2.60;1.25;;;;;;;9.51;100.00;100677.97;5138834;27;20031;-84
2023/12/25 10:27:53;;;;;;;6.00;1.55;;;;;;;9.44;100.00;100688.81;5119945;27;20031;-84
2023/12/25 10:30:24;;;;;;;5.80;1.70;;;;;;;9.38;100.00;100690.50;5120090;27;20051;-84
2023/12/25 10:36:13;;;;;;;2.70;1.17;;;;;;;9.44;100.00;100692.34;5102516;27;20054;-83
2023/12/25 10:38:40;;;;;;;5.13;1.20;;;;;;;9.37;100.00;100690.72;5120619;27;20072;-84
2023/12/25 10:41:24;;;;;;;3.13;1.48;;;;;;;9.31;100.00;100700.50;5119523;27;20034;-85
2023/12/25 10:43:57;;;;;;;4.00;1.27;;;;;;;9.28;100.00;100680.09;5120461;27;20076;-84
2023/12/25 10:46:37;;;;;;;4.50;1.40;;;;;;;9.26;100.00;100693.00;5103809;27;20034;-83
2023/12/25 10:49:06;;;;;;;3.97;1.50;;;;;;;9.19;100.00;100689.47;5137563;27;20031;-83
2023/12/25 10:51:34;;;;;;;3.45;1.50;;;;;;;9.20;100.00;100695.75;5102756;27;20187;-84
2023/12/25 10:54:02;;;;;;;4.05;2.10;;;;;;;9.14;100.00;100702.84;5138061;27;20475;-83
2023/12/25 10:56:30;;;;;;;5.82;2.30;;;;;;;9.12;100.00;100697.63;5119060;27;20019;-83
2023/12/25 10:59:03;;;;;;;7.20;2.20;;;;;;;9.12;100.00;100696.78;5119145;27;20026;-83
2023/12/25 11:01:33;;;;;;;4.65;2.10;;;;;;;9.15;100.00;100685.53;5119239;27;20041;-83
2023/12/25 11:04:00;;;;;;;4.43;1.90;;;;;;;9.16;100.00;100683.66;5138204;27;20454;-84
2023/12/25 11:06:26;;;;;;;5.63;1.88;;;;;;;9.20;100.00;100699.28;5102323;27;20051;-84
2023/12/25 11:08:52;;;;;;;5.30;1.98;;;;;;;9.21;100.00;100697.41;5118931;27;20486;-83
2023/12/25 11:11:18;;;;;;;4.32;1.80;;;;;;;9.21;100.00;100705.50;5119262;27;20031;-84